createdAt,value
2022-08-27T00:01:53.702Z,19.77
2022-08-27T00:04:21.440Z,20.83
2022-08-27T00:06:49.285Z,20.67
2022-08-27T00:09:16.985Z,20.49
2022-08-27T00:11:55.963Z,20.39
2022-08-27T00:14:26.565Z,21.04
2022-08-27T00:16:54.829Z,20.65
2022-08-27T00:19:26.366Z,20.32
2022-08-27T00:21:55.799Z,20.53
2022-08-27T00:24:25.800Z,20.82
2022-08-27T00:26:55.179Z,21.13
2022-08-27T00:29:26.486Z,20.73
2022-08-27T00:31:57.688Z,20.97
2022-08-27T00:34:25.473Z,20.93
2022-08-27T00:36:53.426Z,21.17
2022-08-27T00:39:24.548Z,20.92
2022-08-27T00:41:52.550Z,21.57
2022-08-27T00:44:20.602Z,21.09
2022-08-27T00:46:51.725Z,21.54
2022-08-27T00:49:20.674Z,21.40
2022-08-27T00:51:50.345Z,21.81
2022-08-27T00:54:19.945Z,21.67
2022-08-27T00:56:51.589Z,21.56
2022-08-27T00:59:20.459Z,21.72
2022-08-27T01:02:07.233Z,21.39
2022-08-27T01:04:35.368Z,21.51
2022-08-27T01:07:03.085Z,22.00
2022-08-27T01:09:30.709Z,22.15
2022-08-27T01:11:58.723Z,22.69
2022-08-27T01:14:27.010Z,22.87
2022-08-27T01:17:00.565Z,22.46
2022-08-27T01:19:35.402Z,22.23
2022-08-27T01:22:04.926Z,22.64
2022-08-27T01:24:35.964Z,22.97
2022-08-27T01:27:03.744Z,22.88
2022-08-27T01:29:32.312Z,22.47
2022-08-27T01:32:00.754Z,22.93
2022-08-27T01:34:28.634Z,22.58
2022-08-27T01:36:57.449Z,22.42
2022-08-27T01:39:25.413Z,22.05
2022-08-27T01:41:54.879Z,21.91
2022-08-27T01:44:22.598Z,22.40
2022-08-27T01:46:50.266Z,22.29
2022-08-27T01:49:17.945Z,22.70
2022-08-27T01:51:45.606Z,22.79
2022-08-27T01:54:15.472Z,22.70
2022-08-27T01:56:43.272Z,22.96
2022-08-27T01:59:14.715Z,22.79
2022-08-27T02:01:45.110Z,22.25
2022-08-27T02:04:12.724Z,22.57
2022-08-27T02:06:40.847Z,21.97
2022-08-27T02:09:08.923Z,22.35
2022-08-27T02:11:44.921Z,22.37
2022-08-27T02:14:15.517Z,21.52
2022-08-27T02:16:52.643Z,21.55
2022-08-27T02:19:22.040Z,21.65
2022-08-27T02:21:50.121Z,22.01
2022-08-27T02:24:17.819Z,21.81
2022-08-27T02:26:45.439Z,21.91
2022-08-27T02:29:15.842Z,21.56
2022-08-27T02:31:43.569Z,21.65
2022-08-27T02:34:15.251Z,20.76
2022-08-27T02:36:43.807Z,20.65
2022-08-27T02:39:11.693Z,20.94
2022-08-27T02:41:39.547Z,21.24
2022-08-27T02:44:10.241Z,20.64
2022-08-27T02:46:40.217Z,20.96
2022-08-27T02:49:10.736Z,20.85
2022-08-27T02:51:39.086Z,21.31
2022-08-27T02:54:09.620Z,21.18
2022-08-27T02:56:38.130Z,21.04
2022-08-27T02:59:07.747Z,20.57
2022-08-27T03:01:36.582Z,20.35
2022-08-27T03:04:06.255Z,20.56
2022-08-27T03:06:34.122Z,20.68
2022-08-27T03:09:01.710Z,20.43
2022-08-27T03:11:34.482Z,20.76
2022-08-27T03:14:02.192Z,20.90
2022-08-27T03:16:33.969Z,21.06
2022-08-27T03:19:00.587Z,20.55
2022-08-27T03:21:31.555Z,20.65
2022-08-27T03:24:01.037Z,20.32
2022-08-27T03:26:42.117Z,20.29
2022-08-27T03:29:20.772Z,20.47
2022-08-27T03:31:50.178Z,20.30
2022-08-27T03:34:19.873Z,20.02
2022-08-27T03:36:51.537Z,21.36
2022-08-27T03:39:21.594Z,21.46
2022-08-27T03:41:55.286Z,21.43
2022-08-27T03:44:23.549Z,21.51
2022-08-27T03:46:51.660Z,21.77
2022-08-27T03:49:20.241Z,21.82
2022-08-27T03:51:50.361Z,21.72
2022-08-27T03:54:18.293Z,20.27
2022-08-27T03:56:47.318Z,20.68
2022-08-27T03:59:15.510Z,20.35
2022-08-27T04:01:46.230Z,20.27
2022-08-27T04:04:14.153Z,19.43
2022-08-27T04:06:42.076Z,19.56
2022-08-27T04:09:11.100Z,20.40
2022-08-27T04:11:38.813Z,19.65
2022-08-27T04:14:14.553Z,20.15
2022-08-27T04:16:52.690Z,20.84
2022-08-27T04:19:26.429Z,20.00
2022-08-27T04:21:55.477Z,20.48
2022-08-27T04:24:27.357Z,20.68
2022-08-27T04:26:58.741Z,20.60
2022-08-27T04:29:26.979Z,20.85
2022-08-27T04:31:55.127Z,20.93
2022-08-27T04:34:22.824Z,21.14
2022-08-27T04:36:52.044Z,20.54
2022-08-27T04:39:20.738Z,20.40
2022-08-27T04:41:51.599Z,20.02
2022-08-27T04:44:19.580Z,20.43
2022-08-27T04:46:49.555Z,20.55
2022-08-27T04:49:17.932Z,20.61
2022-08-27T04:51:45.965Z,20.07
2022-08-27T04:54:14.247Z,20.24
2022-08-27T04:56:42.140Z,20.35
2022-08-27T04:59:11.354Z,20.27
2022-08-27T05:01:39.309Z,20.46
2022-08-27T05:04:08.828Z,20.29
2022-08-27T05:06:36.949Z,19.93
2022-08-27T05:09:05.006Z,20.50
2022-08-27T05:11:34.642Z,21.09
2022-08-27T05:14:03.409Z,20.93
2022-08-27T05:16:33.609Z,21.15
2022-08-27T05:19:01.374Z,20.82
2022-08-27T05:21:30.424Z,21.32
2022-08-27T05:24:00.949Z,21.15
2022-08-27T05:26:28.997Z,21.26
2022-08-27T05:28:56.700Z,21.05
2022-08-27T05:31:27.250Z,20.61
2022-08-27T05:33:57.725Z,21.12
2022-08-27T05:36:26.926Z,20.84
2022-08-27T05:38:56.077Z,20.71
2022-08-27T05:41:33.968Z,21.17
2022-08-27T05:44:13.774Z,21.37
2022-08-27T05:46:51.410Z,21.05
2022-08-27T05:49:20.424Z,21.25
2022-08-27T05:51:50.577Z,20.67
2022-08-27T05:54:20.622Z,20.89
2022-08-27T05:56:49.341Z,21.14
2022-08-27T05:59:34.631Z,19.84
2022-08-27T06:02:03.530Z,21.75
2022-08-27T06:04:33.324Z,21.39
2022-08-27T06:07:01.317Z,21.09
2022-08-27T06:09:30.588Z,21.12
2022-08-27T06:11:59.723Z,20.73
2022-08-27T06:14:27.791Z,21.52
2022-08-27T06:16:55.490Z,20.69
2022-08-27T06:19:23.377Z,20.89
2022-08-27T06:22:01.037Z,21.24
2022-08-27T06:24:39.050Z,20.44
2022-08-27T06:27:09.514Z,21.08
2022-08-27T06:29:40.577Z,20.94
2022-08-27T06:32:09.234Z,20.89
2022-08-27T06:34:37.547Z,20.94
2022-08-27T06:37:06.969Z,21.12
2022-08-27T06:39:37.508Z,20.60
2022-08-27T06:42:07.483Z,20.94
2022-08-27T06:44:37.129Z,20.81
2022-08-27T06:47:04.815Z,20.86
2022-08-27T06:49:33.597Z,20.77
2022-08-27T06:52:01.579Z,21.28
2022-08-27T06:54:30.885Z,20.97
2022-08-27T06:56:59.503Z,20.83
2022-08-27T06:59:27.693Z,20.64
2022-08-27T07:01:55.402Z,20.90
2022-08-27T07:04:32.034Z,20.95
2022-08-27T07:07:01.878Z,20.98
2022-08-27T07:09:32.594Z,20.98
2022-08-27T07:12:00.521Z,21.16
2022-08-27T07:14:35.432Z,21.68
2022-08-27T07:17:11.241Z,21.44
2022-08-27T07:19:43.548Z,21.62
2022-08-27T07:22:14.847Z,21.40
2022-08-27T07:24:44.074Z,21.57
2022-08-27T07:27:12.187Z,22.00
2022-08-27T07:29:40.480Z,21.69
2022-08-27T07:32:08.156Z,21.14
2022-08-27T07:34:35.760Z,21.14
2022-08-27T07:37:03.540Z,21.31
2022-08-27T07:39:31.144Z,21.91
2022-08-27T07:42:19.623Z,21.30
2022-08-27T07:44:47.777Z,20.97
2022-08-27T07:47:15.454Z,21.43
2022-08-27T07:49:43.432Z,21.25
2022-08-27T07:52:16.222Z,21.06
2022-08-27T07:54:44.596Z,21.33
2022-08-27T07:57:14.092Z,21.48
2022-08-27T07:59:42.142Z,21.78
2022-08-27T08:02:10.202Z,21.11
2022-08-27T08:04:37.782Z,20.96
2022-08-27T08:07:05.526Z,20.94
2022-08-27T08:09:34.030Z,21.53
2022-08-27T08:12:02.019Z,21.97
2022-08-27T08:14:33.939Z,21.53
2022-08-27T08:17:10.073Z,21.34
2022-08-27T08:19:47.436Z,21.98
2022-08-27T08:22:24.922Z,22.20
2022-08-27T08:24:53.358Z,22.32
2022-08-27T08:27:21.280Z,22.48
2022-08-27T08:29:51.102Z,22.22
2022-08-27T08:32:18.874Z,22.17
2022-08-27T08:34:46.493Z,22.17
2022-08-27T08:37:17.163Z,22.12
2022-08-27T08:39:45.147Z,22.01
2022-08-27T08:42:23.101Z,22.36
2022-08-27T08:44:54.091Z,22.19
2022-08-27T08:47:24.155Z,21.82
2022-08-27T08:49:53.152Z,21.89
2022-08-27T08:52:30.950Z,21.91
2022-08-27T08:55:03.150Z,22.04
2022-08-27T08:57:32.344Z,22.29
2022-08-27T09:00:03.286Z,22.26
2022-08-27T09:02:31.451Z,22.37
2022-08-27T09:04:59.215Z,22.69
2022-08-27T09:07:28.999Z,22.41
2022-08-27T09:09:58.683Z,22.28
2022-08-27T09:12:26.942Z,22.08
2022-08-27T09:14:55.942Z,21.67
2022-08-27T09:17:26.499Z,21.70
2022-08-27T09:19:57.625Z,22.26
2022-08-27T09:22:28.518Z,22.13
2022-08-27T09:24:59.285Z,22.16
2022-08-27T09:29:56.571Z,22.47
2022-08-27T09:32:25.461Z,22.26
2022-08-27T09:34:58.325Z,22.08
2022-08-27T09:37:34.627Z,22.02
2022-08-27T09:40:05.224Z,22.96
2022-08-27T09:42:43.535Z,22.95
2022-08-27T09:45:15.053Z,22.32
2022-08-27T09:47:43.646Z,22.50
2022-08-27T09:50:12.738Z,22.42
2022-08-27T09:52:46.657Z,22.20
2022-08-27T09:55:14.322Z,22.21
2022-08-27T09:57:42.880Z,22.58
2022-08-27T10:00:15.615Z,22.56
2022-08-27T10:02:51.213Z,22.95
2022-08-27T10:05:24.770Z,23.05
2022-08-27T10:07:55.036Z,22.69
2022-08-27T10:10:23.569Z,22.50
2022-08-27T10:12:57.025Z,22.44
2022-08-27T10:15:28.890Z,22.32
2022-08-27T10:18:01.642Z,22.41
2022-08-27T10:20:33.691Z,22.42
2022-08-27T10:23:05.657Z,22.48
2022-08-27T10:25:35.240Z,22.68
2022-08-27T10:28:06.463Z,22.81
2022-08-27T10:30:36.645Z,22.86
2022-08-27T10:33:06.940Z,22.78
2022-08-27T10:35:47.854Z,22.78
2022-08-27T10:38:24.005Z,23.01
2022-08-27T10:40:53.188Z,22.93
2022-08-27T10:43:25.287Z,22.44
2022-08-27T10:45:53.892Z,22.67
2022-08-27T10:48:27.409Z,22.64
2022-08-27T10:50:58.560Z,22.74
2022-08-27T10:53:29.569Z,23.22
2022-08-27T10:56:00.093Z,23.27
2022-08-27T10:58:30.789Z,23.62
2022-08-27T11:00:59.772Z,23.72
2022-08-27T11:03:32.258Z,22.29
2022-08-27T11:06:03.490Z,23.52
2022-08-27T11:08:33.878Z,23.55
2022-08-27T11:11:35.103Z,23.65
2022-08-27T11:13:52.174Z,23.26
2022-08-27T11:16:22.344Z,23.41
2022-08-27T11:18:50.844Z,23.48
2022-08-27T11:21:21.154Z,23.66
2022-08-27T11:23:50.065Z,23.75
2022-08-27T11:26:17.798Z,23.61
2022-08-27T11:28:47.307Z,23.66
2022-08-27T11:31:16.176Z,23.52
2022-08-27T11:33:46.241Z,23.34
2022-08-27T11:36:37.508Z,23.14
2022-08-27T11:39:07.286Z,23.05
2022-08-27T11:41:47.876Z,23.14
2022-08-27T11:44:15.708Z,23.34
2022-08-27T11:46:44.615Z,23.44
2022-08-27T11:49:12.393Z,23.61
2022-08-27T11:51:40.936Z,23.85
2022-08-27T11:54:11.069Z,23.72
2022-08-27T11:56:42.493Z,23.68
2022-08-27T11:59:11.574Z,23.84
2022-08-27T12:01:42.039Z,23.65
2022-08-27T12:04:22.804Z,23.49
2022-08-27T12:06:52.058Z,23.59
2022-08-27T12:09:24.718Z,23.57
2022-08-27T12:11:56.691Z,23.58
2022-08-27T12:14:31.393Z,23.47
2022-08-27T12:17:01.309Z,23.46
2022-08-27T12:19:33.021Z,23.70
2022-08-27T12:22:14.240Z,23.57
2022-08-27T12:24:46.535Z,23.48
2022-08-27T12:27:16.305Z,23.24
2022-08-27T12:29:52.320Z,23.60
2022-08-27T12:32:24.846Z,23.94
2022-08-27T12:34:59.796Z,23.90
2022-08-27T12:37:28.849Z,23.65
2022-08-27T12:40:06.675Z,23.74
2022-08-27T12:42:34.311Z,23.45
2022-08-27T12:45:04.372Z,23.58
2022-08-27T12:47:33.827Z,23.80
2022-08-27T12:50:01.922Z,24.08
2022-08-27T12:52:34.977Z,24.00
2022-08-27T12:55:07.149Z,23.83
2022-08-27T12:57:37.143Z,23.77
2022-08-27T13:00:08.843Z,23.70
2022-08-27T13:02:43.832Z,23.96
2022-08-27T13:05:14.324Z,23.93
2022-08-27T13:07:43.782Z,23.91
2022-08-27T13:10:16.797Z,23.85
2022-08-27T13:12:45.443Z,23.65
2022-08-27T13:15:14.504Z,23.60
2022-08-27T13:18:02.409Z,23.84
2022-08-27T13:20:30.735Z,23.98
2022-08-27T13:23:01.268Z,24.24
2022-08-27T13:25:31.215Z,24.44
2022-08-27T13:28:04.090Z,24.42
2022-08-27T13:30:35.717Z,24.33
2022-08-27T13:33:05.199Z,24.46
2022-08-27T13:35:33.121Z,24.54
2022-08-27T13:38:02.694Z,24.47
2022-08-27T13:40:33.698Z,24.39
2022-08-27T13:43:04.490Z,24.96
2022-08-27T13:45:41.526Z,24.76
2022-08-27T13:48:10.467Z,24.56
2022-08-27T13:50:38.506Z,25.02
2022-08-27T13:53:25.070Z,25.18
2022-08-27T13:55:57.036Z,25.23
2022-08-27T13:58:25.858Z,25.03
2022-08-27T14:00:54.007Z,25.28
2022-08-27T14:03:31.826Z,25.44
2022-08-27T14:06:00.362Z,24.87
2022-08-27T14:08:29.626Z,24.72
2022-08-27T14:11:04.037Z,24.84
2022-08-27T14:13:37.871Z,25.45
2022-08-27T14:16:14.253Z,25.45
2022-08-27T14:18:58.774Z,25.13
2022-08-27T14:21:27.125Z,24.44
2022-08-27T14:23:55.207Z,25.31
2022-08-27T14:26:24.975Z,24.72
2022-08-27T14:28:52.617Z,24.77
2022-08-27T14:31:26.313Z,24.86
2022-08-27T14:33:54.849Z,24.50
2022-08-27T14:36:25.184Z,25.10
2022-08-27T14:38:53.807Z,23.99
2022-08-27T14:41:26.493Z,24.32
2022-08-27T14:43:55.757Z,24.22
2022-08-27T14:46:25.088Z,24.80
2022-08-27T14:48:53.008Z,24.60
2022-08-27T14:51:23.890Z,24.43
2022-08-27T14:53:52.418Z,24.49
2022-08-27T14:56:21.056Z,25.08
2022-08-27T14:58:50.810Z,25.07
2022-08-27T15:01:21.745Z,24.54
2022-08-27T15:03:51.281Z,24.00
2022-08-27T15:06:22.239Z,23.69
2022-08-27T15:08:51.789Z,23.42
2022-08-27T15:11:24.197Z,23.49
2022-08-27T15:13:52.278Z,23.83
2022-08-27T15:16:30.882Z,24.23
2022-08-27T15:19:00.723Z,23.36
2022-08-27T15:21:38.526Z,23.53
2022-08-27T15:24:07.627Z,24.06
2022-08-27T15:26:35.568Z,23.05
2022-08-27T15:29:06.527Z,22.66
2022-08-27T15:31:36.057Z,23.49
2022-08-27T15:34:03.866Z,23.17
2022-08-27T15:36:32.099Z,22.49
2022-08-27T15:39:01.126Z,22.88
2022-08-27T15:41:34.026Z,21.56
2022-08-27T15:44:02.045Z,23.05
2022-08-27T15:46:29.852Z,22.83
2022-08-27T15:48:59.341Z,22.61
2022-08-27T15:51:28.074Z,23.27
2022-08-27T15:53:55.974Z,23.68
2022-08-27T15:56:26.588Z,23.37
2022-08-27T15:58:54.309Z,23.47
2022-08-27T16:01:24.463Z,22.79
2022-08-27T16:03:52.433Z,22.99
2022-08-27T16:06:22.178Z,22.48
2022-08-27T16:08:50.226Z,23.60
2022-08-27T16:11:18.278Z,23.92
2022-08-27T16:13:48.290Z,23.60
2022-08-27T16:16:16.450Z,22.94
2022-08-27T16:18:44.376Z,22.75
2022-08-27T16:21:15.999Z,22.49
2022-08-27T16:23:45.420Z,22.88
2022-08-27T16:26:13.174Z,23.17
2022-08-27T16:28:40.836Z,22.02
2022-08-27T16:31:11.385Z,23.90
2022-08-27T16:33:40.578Z,23.22
2022-08-27T16:36:08.895Z,23.45
2022-08-27T16:38:37.114Z,23.84
2022-08-27T16:41:07.363Z,23.71
2022-08-27T16:43:37.863Z,23.77
2022-08-27T16:46:05.744Z,23.81
2022-08-27T16:48:56.160Z,23.46
2022-08-27T16:51:32.566Z,23.54
2022-08-27T16:54:04.006Z,23.40
2022-08-27T16:56:37.678Z,24.05
2022-08-27T16:59:05.974Z,23.61
2022-08-27T17:01:36.720Z,23.33
2022-08-27T17:04:11.017Z,23.37
2022-08-27T17:06:44.103Z,23.59
2022-08-27T17:09:15.497Z,23.73
2022-08-27T17:11:44.990Z,23.21
2022-08-27T17:14:12.936Z,23.10
2022-08-27T17:16:41.620Z,23.40
2022-08-27T17:19:17.138Z,22.72
2022-08-27T17:21:45.867Z,23.52
2022-08-27T17:24:13.744Z,23.23
2022-08-27T17:26:41.477Z,23.60
2022-08-27T17:29:11.152Z,22.84
2022-08-27T17:31:44.169Z,23.71
2022-08-27T17:34:13.911Z,23.62
2022-08-27T17:36:44.489Z,23.62
2022-08-27T17:39:12.333Z,23.71
2022-08-27T17:41:41.943Z,23.44
2022-08-27T17:44:20.590Z,23.79
2022-08-27T17:46:48.392Z,23.89
2022-08-27T17:49:19.641Z,23.15
2022-08-27T17:51:48.429Z,23.46
2022-08-27T17:54:22.389Z,23.75
2022-08-27T17:56:50.146Z,23.52
2022-08-27T17:59:21.932Z,23.74
2022-08-27T18:01:49.620Z,24.11
2022-08-27T18:04:17.382Z,23.98
2022-08-27T18:06:45.129Z,23.80
2022-08-27T18:09:16.387Z,23.71
2022-08-27T18:11:44.446Z,24.05
2022-08-27T18:14:18.317Z,23.40
2022-08-27T18:16:48.318Z,23.18
2022-08-27T18:19:16.072Z,23.76
2022-08-27T18:21:46.610Z,23.77
2022-08-27T18:24:15.278Z,23.52
2022-08-27T18:26:47.572Z,23.32
2022-08-27T18:29:15.925Z,23.43
2022-08-27T18:31:43.674Z,23.04
2022-08-27T18:34:14.622Z,23.09
2022-08-27T18:36:48.006Z,23.54
2022-08-27T18:39:15.619Z,23.76
2022-08-27T18:41:44.147Z,24.04
2022-08-27T18:44:17.262Z,24.07
2022-08-27T18:46:48.325Z,23.60
2022-08-27T18:49:24.762Z,23.36
2022-08-27T18:51:53.977Z,23.42
2022-08-27T18:54:22.193Z,23.49
2022-08-27T18:56:53.212Z,23.62
2022-08-27T18:59:25.873Z,23.72
2022-08-27T19:01:54.245Z,23.73
2022-08-27T19:04:27.844Z,23.79
2022-08-27T19:06:55.450Z,23.78
2022-08-27T19:09:26.245Z,23.89
2022-08-27T19:11:58.253Z,23.73
2022-08-27T19:14:28.510Z,23.70
2022-08-27T19:16:59.489Z,23.88
2022-08-27T19:19:30.098Z,23.47
2022-08-27T19:21:59.367Z,23.17
2022-08-27T19:24:36.876Z,23.26
2022-08-27T19:27:13.641Z,23.33
2022-08-27T19:29:43.423Z,23.09
2022-08-27T19:32:11.116Z,23.26
2022-08-27T19:34:40.156Z,23.41
2022-08-27T19:37:13.036Z,23.36
2022-08-27T19:39:40.991Z,23.39
2022-08-27T19:42:11.217Z,23.42
2022-08-27T19:44:38.916Z,23.24
2022-08-27T19:47:07.798Z,23.38
2022-08-27T19:49:35.790Z,23.38
2022-08-27T19:52:08.331Z,23.47
2022-08-27T19:54:51.644Z,23.53
2022-08-27T19:57:24.896Z,23.70
2022-08-27T19:59:52.651Z,23.78
2022-08-27T20:02:20.820Z,23.70
2022-08-27T20:05:14.179Z,23.66
2022-08-27T20:07:39.781Z,23.38
2022-08-27T20:10:09.847Z,23.39
2022-08-27T20:12:38.686Z,23.31
2022-08-27T20:15:07.757Z,23.27
2022-08-27T20:17:36.025Z,23.18
2022-08-27T20:20:06.321Z,23.25
2022-08-27T20:22:34.066Z,23.11
2022-08-27T20:25:03.262Z,23.25
2022-08-27T20:27:33.971Z,23.37
2022-08-27T20:30:02.122Z,23.40
2022-08-27T20:32:30.303Z,23.43
2022-08-27T20:34:58.219Z,23.45
2022-08-27T20:37:25.974Z,23.31
2022-08-27T20:39:55.113Z,23.20
2022-08-27T20:42:24.976Z,22.86
2022-08-27T20:44:54.467Z,22.94
2022-08-27T20:47:25.330Z,22.60
2022-08-27T20:49:53.076Z,22.94
2022-08-27T20:52:20.697Z,22.71
2022-08-27T20:54:52.240Z,22.92
2022-08-27T20:57:19.857Z,23.00
2022-08-27T21:00:06.684Z,23.08
2022-08-27T21:02:34.363Z,23.08
2022-08-27T21:05:08.450Z,23.05
2022-08-27T21:07:36.122Z,22.72
2022-08-27T21:10:04.013Z,22.62
2022-08-27T21:12:32.428Z,22.95
2022-08-27T21:15:07.464Z,23.05
2022-08-27T21:17:35.256Z,22.56
2022-08-27T21:20:08.310Z,22.40
2022-08-27T21:22:36.138Z,22.45
2022-08-27T21:25:04.305Z,22.34
2022-08-27T21:27:34.756Z,21.95
2022-08-27T21:30:02.707Z,21.59
2022-08-27T21:32:31.904Z,21.49
2022-08-27T21:34:59.688Z,22.03
2022-08-27T21:37:32.937Z,22.17
2022-08-27T21:40:01.052Z,22.12
2022-08-27T21:42:31.880Z,22.59
2022-08-27T21:44:59.643Z,22.70
2022-08-27T21:47:27.425Z,22.52
2022-08-27T21:49:58.938Z,22.77
2022-08-27T21:52:26.785Z,22.57
2022-08-27T21:54:54.742Z,22.65
2022-08-27T21:57:22.788Z,22.64
2022-08-27T21:59:52.709Z,22.79
2022-08-27T22:02:40.095Z,22.76
2022-08-27T22:05:12.519Z,22.82
2022-08-27T22:07:42.107Z,22.56
2022-08-27T22:10:09.816Z,22.82
2022-08-27T22:12:37.492Z,22.71
2022-08-27T22:15:05.730Z,22.66
2022-08-27T22:17:33.316Z,22.44
2022-08-27T22:20:01.358Z,22.42
2022-08-27T22:22:31.178Z,22.42
2022-08-27T22:25:00.419Z,22.51
2022-08-27T22:27:28.284Z,22.48
2022-08-27T22:29:56.008Z,22.09
2022-08-27T22:32:25.071Z,21.97
2022-08-27T22:34:55.626Z,22.19
2022-08-27T22:37:23.377Z,22.09
2022-08-27T22:39:56.448Z,22.14
2022-08-27T22:42:25.616Z,22.14
2022-08-27T22:44:54.540Z,22.10
2022-08-27T22:47:22.771Z,22.14
2022-08-27T22:49:52.970Z,22.22
2022-08-27T22:52:20.788Z,22.14
2022-08-27T22:54:55.021Z,22.03
2022-08-27T22:57:24.465Z,22.29
2022-08-27T22:59:53.335Z,22.28
2022-08-27T23:02:20.959Z,22.27
2022-08-27T23:04:55.841Z,22.13
2022-08-27T23:07:24.204Z,22.24
2022-08-27T23:09:52.668Z,22.07
2022-08-27T23:12:22.460Z,22.11
2022-08-27T23:14:52.153Z,22.48
2022-08-27T23:17:23.864Z,22.66
2022-08-27T23:19:56.313Z,22.71
2022-08-27T23:22:26.422Z,22.62
2022-08-27T23:25:11.491Z,22.56
2022-08-27T23:27:42.124Z,22.55
2022-08-27T23:30:13.186Z,22.73
2022-08-27T23:32:40.853Z,22.55
2022-08-27T23:35:17.018Z,22.53
2022-08-27T23:37:44.735Z,22.56
2022-08-27T23:40:13.213Z,22.33
2022-08-27T23:42:42.840Z,22.35
2022-08-27T23:45:14.736Z,22.08
2022-08-27T23:47:42.492Z,21.59
2022-08-27T23:50:11.077Z,21.80
2022-08-27T23:52:41.390Z,21.96
2022-08-27T23:55:09.743Z,22.06
2022-08-27T23:57:37.432Z,22.26
